Time;durP1;ratioP1;P1;durP2;ratioP2;P2;SDS_P1;SDS_P2;PMS_P1;PMS_P2;Temp;Humidity;BMP_temperature;BMP_pressure;BME280_temperature;BME280_humidity;BME280_pressure;Samples;Min_cycle;Max_cycle;Signal;HPM_P1;HPM_P2
2022/09/27 00:01:09;;;;;;;2.40;0.63;;;10.00;99.90;;;;;;5028299;28;20049;-36
2022/09/27 00:03:35;;;;;;;8.63;0.38;;;9.90;99.90;;;;;;5034609;28;20064;-38
2022/09/27 00:06:05;;;;;;;3.00;0.10;;;9.90;99.90;;;;;;5029518;28;20124;-38
2022/09/27 00:08:35;;;;;;;2.80;0.47;;;9.80;99.90;;;;;;5031509;28;20046;-36
2022/09/27 00:11:05;;;;;;;2.97;0.20;;;9.80;99.90;;;;;;5029222;28;20107;-36
2022/09/27 00:13:31;;;;;;;3.10;0.10;;;9.70;99.90;;;;;;5029192;28;20060;-35
2022/09/27 00:16:04;;;;;;;1.88;0.25;;;9.70;99.90;;;;;;5030101;28;20029;-35
2022/09/27 00:18:30;;;;;;;;;;;9.80;99.90;;;;;;5029962;28;20640;-35
2022/09/27 00:20:56;;;;;;;1.10;0.20;;;9.80;99.90;;;;;;5027636;28;19924;-36
2022/09/27 00:23:21;;;;;;;1.30;0.20;;;9.80;99.90;;;;;;5032371;28;20068;-35
2022/09/27 00:25:58;;;;;;;0.17;0.00;;;9.80;99.90;;;;;;5034005;28;20529;-36
2022/09/27 00:28:24;;;;;;;1.00;0.03;;;9.80;99.90;;;;;;5029125;28;20107;-35
2022/09/27 00:30:51;;;;;;;0.60;0.10;;;9.80;99.90;;;;;;5026906;28;20041;-35
2022/09/27 00:33:16;;;;;;;1.10;0.10;;;9.80;99.90;;;;;;5033760;28;20128;-35
2022/09/27 00:35:43;;;;;;;1.00;0.10;;;9.70;99.90;;;;;;5026899;28;20112;-36
2022/09/27 00:38:09;;;;;;;2.53;0.10;;;9.70;99.90;;;;;;5032974;28;20041;-35
2022/09/27 00:40:34;;;;;;;3.55;0.20;;;9.70;99.90;;;;;;5037159;28;20037;-36
2022/09/27 00:43:00;;;;;;;1.17;0.10;;;9.60;99.90;;;;;;5038599;28;20119;-36
2022/09/27 00:45:26;;;;;;;1.48;0.15;;;9.60;99.90;;;;;;5036269;28;20414;-36
2022/09/27 00:47:55;;;;;;;2.03;0.57;;;9.60;99.90;;;;;;5035241;28;20041;-35
2022/09/27 00:50:35;;;;;;;0.73;0.20;;;9.60;99.90;;;;;;5030397;28;20076;-35
2022/09/27 00:53:13;;;;;;;3.90;0.10;;;9.60;99.90;;;;;;5034985;28;20038;-36
2022/09/27 00:55:44;;;;;;;3.10;0.20;;;9.60;99.90;;;;;;5040601;28;20041;-35
2022/09/27 00:58:14;;;;;;;5.03;0.40;;;9.60;99.90;;;;;;5033485;28;20448;-38
2022/09/27 01:00:44;;;;;;;1.98;0.20;;;9.60;99.90;;;;;;5031942;28;20448;-36
2022/09/27 01:03:14;;;;;;;5.13;0.17;;;9.60;99.90;;;;;;5034611;28;20091;-35
2022/09/27 01:05:41;;;;;;;3.17;0.20;;;9.60;99.90;;;;;;5036079;28;20037;-35
2022/09/27 01:08:08;;;;;;;2.35;0.20;;;9.70;99.90;;;;;;5034591;28;20041;-36
2022/09/27 01:10:42;;;;;;;4.28;0.20;;;9.70;99.90;;;;;;5033650;28;20112;-36
2022/09/27 01:13:20;;;;;;;3.72;0.60;;;9.70;99.90;;;;;;5031244;28;20053;-35
2022/09/27 01:16:17;;;;;;;3.05;0.20;;;9.80;99.90;;;;;;5029960;28;20121;-36
2022/09/27 01:18:52;;;;;;;3.53;0.30;;;9.80;99.90;;;;;;5032425;28;20071;-36
2022/09/27 01:21:39;;;;;;;0.30;0.00;;;9.90;99.90;;;;;;5025757;28;20065;-36
2022/09/27 01:24:42;;;;;;;1.42;0.40;;;9.90;99.90;;;;;;5039399;28;20600;-37
2022/09/27 01:27:19;;;;;;;1.48;0.38;;;9.90;99.90;;;;;;5033451;28;20139;-36
2022/09/27 01:30:21;;;;;;;4.43;0.20;;;9.90;99.90;;;;;;5031353;28;20786;-36
2022/09/27 01:32:52;;;;;;;4.55;0.40;;;9.90;99.90;;;;;;5033239;28;20132;-36
2022/09/27 01:35:37;;;;;;;4.00;0.30;;;9.90;99.90;;;;;;5036831;28;20041;-36
2022/09/27 01:38:25;;;;;;;3.08;0.10;;;9.90;99.90;;;;;;5034889;28;20120;-36
2022/09/27 01:40:51;;;;;;;1.65;0.10;;;9.90;99.90;;;;;;5037584;28;20037;-35
2022/09/27 01:43:24;;;;;;;3.75;0.20;;;9.90;99.90;;;;;;5032230;28;20054;-37
2022/09/27 01:46:05;;;;;;;5.50;0.43;;;9.90;99.90;;;;;;5034163;28;20483;-35
2022/09/27 01:48:42;;;;;;;1.60;0.25;;;9.90;99.90;;;;;;5034498;28;20037;-35
2022/09/27 01:51:26;;;;;;;1.98;0.25;;;9.90;99.90;;;;;;5032088;28;20075;-35
2022/09/27 01:53:56;;;;;;;1.13;0.10;;;9.90;99.90;;;;;;5030515;28;20095;-36
2022/09/27 01:56:32;;;;;;;2.95;0.17;;;9.80;99.90;;;;;;5032220;28;20046;-36
2022/09/27 01:59:06;;;;;;;4.72;0.28;;;9.80;99.90;;;;;;5022825;28;20045;-36
2022/09/27 02:01:34;;;;;;;3.25;0.20;;;9.80;99.90;;;;;;5030805;28;20080;-36
2022/09/27 02:04:02;;;;;;;3.38;0.10;;;9.80;99.90;;;;;;5039650;28;20115;-36
2022/09/27 02:17:39;;;;;;;4.07;0.10;;;9.50;99.90;;;;;;5030739;28;20084;-36
2022/09/27 02:20:34;;;;;;;2.92;0.10;;;9.50;99.90;;;;;;5034091;28;20120;-35
2022/09/27 02:23:10;;;;;;;1.42;0.10;;;9.50;99.90;;;;;;5036548;28;20041;-35
2022/09/27 02:26:02;;;;;;;3.20;0.20;;;9.50;99.90;;;;;;5033320;28;20047;-36
2022/09/27 02:28:39;;;;;;;1.20;0.20;;;9.50;99.90;;;;;;5029081;28;20040;-36
2022/09/27 02:31:04;;;;;;;2.88;0.10;;;9.50;99.90;;;;;;5034355;28;20095;-36
2022/09/27 02:33:39;;;;;;;0.68;0.10;;;9.50;99.90;;;;;;5035428;28;20406;-36
2022/09/27 02:36:05;;;;;;;5.30;0.20;;;9.50;99.90;;;;;;5033597;28;20040;-36
2022/09/27 02:38:31;;;;;;;0.88;0.03;;;9.50;99.90;;;;;;5033180;28;20037;-38
2022/09/27 02:40:57;;;;;;;1.85;0.65;;;9.50;99.90;;;;;;5028293;28;20130;-35
2022/09/27 02:43:26;;;;;;;1.98;0.10;;;9.50;99.90;;;;;;5034968;28;20540;-35
2022/09/27 02:46:27;;;;;;;3.30;0.30;;;9.50;99.90;;;;;;5029832;28;20122;-35
2022/09/27 02:49:22;;;;;;;4.20;0.10;;;9.50;99.90;;;;;;5035673;28;20033;-37
2022/09/27 02:52:12;;;;;;;5.55;1.80;;;9.50;99.90;;;;;;5034618;28;20068;-36
2022/09/27 02:55:05;;;;;;;0.52;0.00;;;9.50;99.90;;;;;;5035248;28;20073;-37
2022/09/27 02:57:55;;;;;;;0.25;0.00;;;9.50;99.90;;;;;;5029213;28;20036;-35
2022/09/27 03:00:32;;;;;;;2.10;1.00;;;9.50;99.90;;;;;;5029088;28;20049;-37
2022/09/27 03:03:01;;;;;;;0.70;0.15;;;9.50;99.90;;;;;;5024002;28;20430;-37
2022/09/27 03:05:32;;;;;;;2.33;0.20;;;9.50;99.90;;;;;;5031542;28;20048;-36
2022/09/27 03:07:58;;;;;;;1.80;0.20;;;9.50;99.90;;;;;;5030671;28;21331;-36
2022/09/27 03:10:26;;;;;;;3.92;0.73;;;9.40;99.90;;;;;;5026977;28;20064;-37
2022/09/27 03:12:53;;;;;;;0.25;0.03;;;9.40;99.90;;;;;;5034907;28;20049;-38
2022/09/27 03:15:19;;;;;;;1.92;0.10;;;9.40;99.90;;;;;;5030565;28;20044;-38
2022/09/27 03:17:45;;;;;;;0.63;0.10;;;9.30;99.90;;;;;;5028925;28;20029;-37
2022/09/27 03:20:10;;;;;;;2.17;0.10;;;9.30;99.90;;;;;;5032039;28;20047;-37
2022/09/27 03:22:37;;;;;;;0.40;0.00;;;9.40;99.90;;;;;;5031895;28;20033;-38
2022/09/27 03:25:06;;;;;;;1.55;0.15;;;9.40;99.90;;;;;;5011168;28;20093;-37
2022/09/27 03:27:32;;;;;;;1.05;0.10;;;9.40;99.90;;;;;;5028533;28;20056;-37
2022/09/27 03:29:58;;;;;;;2.65;0.10;;;9.30;99.90;;;;;;5031959;28;20037;-37
2022/09/27 03:32:25;;;;;;;2.55;0.20;;;9.30;99.90;;;;;;5028589;28;20053;-37
2022/09/27 03:34:51;;;;;;;2.45;0.10;;;9.30;99.90;;;;;;5024368;28;20044;-37
2022/09/27 03:37:16;;;;;;;1.25;0.15;;;9.30;99.90;;;;;;5034901;28;20038;-36
2022/09/27 03:39:42;;;;;;;0.82;0.00;;;9.30;99.90;;;;;;5035969;28;20499;-36
2022/09/27 03:42:07;;;;;;;1.73;0.03;;;9.30;99.90;;;;;;5029907;28;20297;-37
2022/09/27 03:44:33;;;;;;;4.22;0.15;;;9.40;99.90;;;;;;5028521;28;20045;-37
2022/09/27 03:46:59;;;;;;;1.92;0.10;;;9.40;99.90;;;;;;5033057;28;20037;-37
2022/09/27 03:49:25;;;;;;;0.60;0.10;;;9.40;99.90;;;;;;5031632;28;20037;-37
2022/09/27 03:51:50;;;;;;;0.40;0.00;;;9.40;99.90;;;;;;5029042;28;20056;-38
2022/09/27 03:54:16;;;;;;;1.75;0.13;;;9.40;99.90;;;;;;5032741;28;20085;-38
2022/09/27 03:56:42;;;;;;;4.35;0.17;;;9.30;99.90;;;;;;5029171;28;20037;-37
2022/09/27 03:59:08;;;;;;;1.85;0.10;;;9.30;99.90;;;;;;5028923;28;20084;-36
2022/09/27 04:01:37;;;;;;;2.10;1.10;;;9.30;99.90;;;;;;5031611;28;20037;-36
2022/09/27 04:04:03;;;;;;;4.28;0.13;;;9.20;99.90;;;;;;5030240;28;20052;-37
2022/09/27 04:06:29;;;;;;;0.70;0.10;;;9.20;99.90;;;;;;5023604;28;20048;-38
2022/09/27 04:08:55;;;;;;;2.20;0.10;;;9.20;99.90;;;;;;5025302;28;20041;-37
2022/09/27 04:11:22;;;;;;;0.73;0.10;;;9.10;99.90;;;;;;5026636;28;20073;-37
2022/09/27 04:13:48;;;;;;;1.27;0.10;;;9.10;99.90;;;;;;5024890;28;20076;-37
2022/09/27 04:16:15;;;;;;;2.30;0.13;;;9.10;99.90;;;;;;5027993;28;20461;-37
2022/09/27 04:18:41;;;;;;;1.88;0.10;;;9.10;99.90;;;;;;5029752;28;20424;-38
2022/09/27 04:21:08;;;;;;;3.90;0.10;;;9.10;99.90;;;;;;5018332;28;21128;-37
2022/09/27 04:23:34;;;;;;;0.55;0.20;;;9.10;99.90;;;;;;5025799;28;20048;-37
2022/09/27 04:25:59;;;;;;;1.67;0.10;;;9.00;99.90;;;;;;5028781;28;20134;-37
2022/09/27 04:28:26;;;;;;;1.50;0.20;;;9.10;99.90;;;;;;5030185;28;20037;-36
2022/09/27 04:30:53;;;;;;;2.97;0.25;;;9.00;99.90;;;;;;5034481;28;20060;-35
2022/09/27 04:33:18;;;;;;;1.92;0.10;;;9.00;99.90;;;;;;5028688;28;20037;-37
2022/09/27 04:38:28;;;;;;;2.03;0.10;;;9.00;99.90;;;;;;5033159;28;20506;-35
2022/09/27 04:40:54;;;;;;;1.83;0.10;;;9.00;99.90;;;;;;5031212;28;20033;-36
2022/09/27 04:43:19;;;;;;;3.33;0.30;;;9.00;99.90;;;;;;5023254;28;20554;-37
2022/09/27 04:45:45;;;;;;;2.60;0.15;;;9.00;99.90;;;;;;5032246;28;20083;-36
2022/09/27 04:48:11;;;;;;;2.97;0.10;;;9.00;99.90;;;;;;5010227;28;20049;-36
2022/09/27 04:50:37;;;;;;;3.10;0.20;;;9.00;99.90;;;;;;5026642;28;20501;-36
2022/09/27 04:53:03;;;;;;;2.80;0.35;;;9.00;99.90;;;;;;5028600;28;20053;-35
2022/09/27 04:55:29;;;;;;;0.73;0.10;;;9.00;99.90;;;;;;5024864;28;20048;-35
2022/09/27 04:57:55;;;;;;;2.22;0.20;;;9.00;99.90;;;;;;5026205;28;20037;-36
2022/09/27 05:00:21;;;;;;;3.97;0.30;;;8.90;99.90;;;;;;5034505;28;20033;-36
2022/09/27 05:02:47;;;;;;;1.60;0.10;;;8.90;99.90;;;;;;5016327;28;20068;-36
2022/09/27 05:05:14;;;;;;;2.85;0.17;;;8.80;99.90;;;;;;5009729;28;20053;-36
2022/09/27 05:07:40;;;;;;;1.90;0.47;;;8.80;99.90;;;;;;5026081;28;20043;-35
2022/09/27 05:10:07;;;;;;;4.70;0.20;;;8.70;99.90;;;;;;5034645;28;20482;-35
2022/09/27 05:12:33;;;;;;;4.10;0.20;;;8.70;99.90;;;;;;5035371;28;20490;-35
2022/09/27 05:14:59;;;;;;;5.45;0.30;;;8.70;99.90;;;;;;5011193;28;20041;-36
2022/09/27 05:17:25;;;;;;;5.05;0.30;;;8.60;99.90;;;;;;5027742;28;20444;-37
2022/09/27 05:19:51;;;;;;;1.17;0.10;;;8.50;99.90;;;;;;5030294;28;20463;-38
2022/09/27 05:22:17;;;;;;;2.30;0.20;;;8.50;99.90;;;;;;5029084;28;20029;-37
2022/09/27 05:24:42;;;;;;;3.72;0.20;;;8.40;99.90;;;;;;5033760;28;20048;-38
2022/09/27 05:27:19;;;;;;;3.22;0.75;;;8.40;99.90;;;;;;5034572;28;20462;-38
2022/09/27 05:29:45;;;;;;;2.05;0.20;;;8.30;99.90;;;;;;5027768;28;20582;-37
2022/09/27 05:32:12;;;;;;;3.58;0.20;;;8.30;99.90;;;;;;5028631;28;20426;-38
2022/09/27 05:34:37;;;;;;;1.67;0.20;;;8.30;99.90;;;;;;5029767;28;20041;-36
2022/09/27 05:37:03;;;;;;;1.92;0.22;;;8.20;99.90;;;;;;5031456;28;20041;-36
2022/09/27 05:39:29;;;;;;;2.80;0.38;;;8.20;99.90;;;;;;5010149;28;20390;-36
2022/09/27 05:41:57;;;;;;;2.35;0.52;;;8.20;99.90;;;;;;5031528;28;20057;-36
2022/09/27 05:44:24;;;;;;;2.47;0.30;;;8.10;99.90;;;;;;5029275;28;20590;-37
2022/09/27 05:46:51;;;;;;;2.78;0.32;;;8.10;99.90;;;;;;5032385;28;20491;-42
2022/09/27 05:49:16;;;;;;;2.65;0.20;;;8.20;99.90;;;;;;5025485;28;20544;-35
2022/09/27 05:51:42;;;;;;;1.48;0.20;;;8.20;99.90;;;;;;4994658;28;20046;-36
2022/09/27 05:54:08;;;;;;;1.73;0.15;;;8.30;99.90;;;;;;5029025;28;20048;-40
2022/09/27 05:56:34;;;;;;;1.58;0.10;;;8.30;99.90;;;;;;5036691;28;20083;-37
2022/09/27 05:58:59;;;;;;;1.73;0.10;;;8.30;99.90;;;;;;5030593;28;20117;-40
2022/09/27 06:01:26;;;;;;;0.25;0.00;;;8.30;99.90;;;;;;5034100;28;20035;-37
2022/09/27 06:03:53;;;;;;;2.58;0.10;;;8.40;99.90;;;;;;5028862;28;20041;-36
2022/09/27 06:06:21;;;;;;;0.93;0.10;;;8.40;99.90;;;;;;5031671;28;20128;-36
2022/09/27 06:08:48;;;;;;;3.13;0.10;;;8.50;99.90;;;;;;5029922;28;20098;-36
2022/09/27 06:11:14;;;;;;;0.52;0.13;;;8.50;99.90;;;;;;5032346;28;20063;-37
2022/09/27 06:13:40;;;;;;;0.60;0.10;;;8.60;99.90;;;;;;5026043;28;20245;-37
2022/09/27 06:16:09;;;;;;;2.25;0.57;;;8.70;99.90;;;;;;5031199;28;20037;-38
2022/09/27 06:18:35;;;;;;;0.22;0.00;;;8.80;99.90;;;;;;5029498;28;20036;-38
2022/09/27 06:21:03;;;;;;;0.43;0.00;;;8.90;99.90;;;;;;5034141;28;20656;-38
2022/09/27 06:23:31;;;;;;;1.05;0.10;;;9.00;99.90;;;;;;5031379;28;20176;-37
2022/09/27 06:26:06;;;;;;;0.35;0.03;;;9.10;99.90;;;;;;5033201;28;20057;-38
2022/09/27 06:28:35;;;;;;;1.90;0.10;;;9.20;99.90;;;;;;5026794;28;20521;-38
2022/09/27 06:31:01;;;;;;;1.30;0.00;;;9.30;99.90;;;;;;5028171;28;20039;-36
2022/09/27 06:33:27;;;;;;;0.00;0.00;;;9.40;99.90;;;;;;5011439;28;20034;-37
2022/09/27 06:35:53;;;;;;;0.10;0.00;;;9.40;99.90;;;;;;5026570;28;20071;-39
2022/09/27 06:38:24;;;;;;;3.20;0.20;;;9.50;99.90;;;;;;5023432;28;20037;-38
2022/09/27 06:40:50;;;;;;;1.40;0.10;;;9.50;99.90;;;;;;5034161;28;20398;-39
2022/09/27 06:43:19;;;;;;;1.05;0.10;;;9.60;99.90;;;;;;5031770;28;20045;-38
2022/09/27 06:45:45;;;;;;;1.55;0.17;;;9.70;99.90;;;;;;5028341;28;20117;-39
2022/09/27 06:48:12;;;;;;;2.72;0.10;;;9.70;99.90;;;;;;5030110;28;20042;-38
2022/09/27 06:50:40;;;;;;;1.58;0.10;;;9.80;99.90;;;;;;5034772;28;20112;-36
2022/09/27 06:53:11;;;;;;;0.10;0.03;;;9.90;99.90;;;;;;5031823;28;20171;-38
2022/09/27 06:55:37;;;;;;;2.20;0.10;;;9.90;99.90;;;;;;5021828;28;20086;-38
2022/09/27 07:00:50;;;;;;;2.58;0.10;;;10.00;99.90;;;;;;5023529;28;20057;-35
2022/09/27 07:03:16;;;;;;;14.60;1.52;;;10.00;99.90;;;;;;5028541;28;20038;-38
2022/09/27 07:05:42;;;;;;;1.20;0.10;;;10.00;99.90;;;;;;5028307;28;20033;-39
2022/09/27 07:08:11;;;;;;;0.80;0.15;;;10.10;99.90;;;;;;5031252;28;20098;-38
2022/09/27 07:10:38;;;;;;;1.73;0.10;;;10.20;99.90;;;;;;5025273;28;20041;-38
2022/09/27 07:13:06;;;;;;;1.20;0.10;;;10.20;99.90;;;;;;5024648;28;20037;-39
2022/09/27 07:15:36;;;;;;;2.75;0.10;;;10.20;99.90;;;;;;5024324;28;23227;-38
2022/09/27 07:18:03;;;;;;;1.75;0.10;;;10.10;99.90;;;;;;5026557;28;20045;-38
2022/09/27 07:20:30;;;;;;;0.20;0.05;;;10.00;99.90;;;;;;5021195;28;20095;-43
2022/09/27 07:22:56;;;;;;;0.22;0.00;;;10.00;99.90;;;;;;5037365;28;20036;-42
2022/09/27 07:25:22;;;;;;;4.88;0.85;;;10.10;99.90;;;;;;5037460;28;20029;-38
2022/09/27 07:27:48;;;;;;;0.75;0.10;;;10.10;99.90;;;;;;5036095;28;20048;-38
2022/09/27 07:30:15;;;;;;;0.82;0.15;;;10.20;99.90;;;;;;5029224;28;20048;-37
2022/09/27 07:32:42;;;;;;;2.13;0.08;;;10.40;99.90;;;;;;5028841;28;20124;-37
2022/09/27 07:35:09;;;;;;;0.10;0.00;;;10.50;99.90;;;;;;5032537;28;20125;-38
2022/09/27 07:37:36;;;;;;;1.38;0.10;;;10.70;99.90;;;;;;5029632;28;20108;-38
2022/09/27 07:40:06;;;;;;;1.05;0.00;;;10.80;99.90;;;;;;5029385;28;20570;-37
2022/09/27 07:42:32;;;;;;;1.42;0.00;;;10.90;99.90;;;;;;5030565;28;20056;-37
2022/09/27 07:44:58;;;;;;;0.10;0.00;;;11.00;99.90;;;;;;5026055;28;20037;-37
2022/09/27 07:47:25;;;;;;;2.17;0.10;;;11.20;99.90;;;;;;5032129;28;20418;-37
2022/09/27 07:49:51;;;;;;;0.10;0.00;;;11.30;99.90;;;;;;5025187;28;20045;-35
2022/09/27 07:52:18;;;;;;;1.55;0.00;;;11.40;99.90;;;;;;5026867;28;20044;-37
2022/09/27 07:54:45;;;;;;;0.10;0.00;;;11.40;99.90;;;;;;5025643;28;20118;-36
2022/09/27 07:57:11;;;;;;;0.20;0.00;;;11.40;99.90;;;;;;5027129;28;20491;-36
2022/09/27 07:59:36;;;;;;;0.30;0.10;;;11.40;99.90;;;;;;5025194;28;20033;-36
2022/09/27 08:02:05;;;;;;;0.00;0.00;;;11.30;99.90;;;;;;5027394;28;20413;-40
2022/09/27 08:04:30;;;;;;;0.65;0.00;;;11.20;99.90;;;;;;5027913;28;20444;-36
2022/09/27 08:06:56;;;;;;;1.60;0.00;;;11.10;99.90;;;;;;5032875;28;20514;-36
2022/09/27 08:09:22;;;;;;;1.60;0.00;;;11.00;99.90;;;;;;5030769;28;20033;-35
2022/09/27 08:11:48;;;;;;;1.05;0.10;;;11.00;99.90;;;;;;5029332;28;20099;-35
2022/09/27 08:14:14;;;;;;;10.80;0.28;;;10.90;99.90;;;;;;5026909;28;20500;-35
2022/09/27 08:16:40;;;;;;;1.17;0.10;;;10.90;99.90;;;;;;5027941;28;20502;-37
2022/09/27 08:19:06;;;;;;;0.63;0.10;;;10.90;99.90;;;;;;5011476;28;20117;-37
2022/09/27 08:21:32;;;;;;;0.90;0.10;;;10.90;99.90;;;;;;5032577;28;20537;-38
2022/09/27 08:23:58;;;;;;;1.20;0.03;;;10.80;99.90;;;;;;5031221;28;20045;-37
2022/09/27 08:26:26;;;;;;;0.80;0.08;;;10.80;99.90;;;;;;5029008;28;20037;-36
2022/09/27 08:28:51;;;;;;;1.05;0.05;;;10.80;99.90;;;;;;5033194;28;20083;-37
2022/09/27 08:31:18;;;;;;;0.75;0.10;;;10.80;99.90;;;;;;5028539;28;20045;-37
2022/09/27 08:33:47;;;;;;;1.40;0.10;;;10.80;99.90;;;;;;5031023;28;20051;-38
2022/09/27 08:36:13;;;;;;;0.47;0.05;;;10.90;99.90;;;;;;5030193;28;20043;-37
2022/09/27 08:38:38;;;;;;;0.22;0.03;;;11.00;99.90;;;;;;5036707;28;20487;-35
2022/09/27 08:41:15;;;;;;;1.27;0.03;;;11.00;99.90;;;;;;5027159;28;20037;-37
2022/09/27 08:44:08;;;;;;;1.30;0.40;;;11.10;99.90;;;;;;5028855;28;20049;-38
2022/09/27 08:46:40;;;;;;;;;;;11.20;99.90;;;;;;5025120;28;20487;-35
2022/09/27 08:49:25;;;;;;;0.75;0.00;;;11.20;99.90;;;;;;5031009;28;19948;-36
2022/09/27 08:51:54;;;;;;;1.65;0.10;;;11.20;99.90;;;;;;5021672;28;20128;-35
2022/09/27 08:54:28;;;;;;;2.45;0.10;;;11.20;99.90;;;;;;5030577;28;20049;-36
2022/09/27 08:57:01;;;;;;;2.28;0.10;;;11.10;99.90;;;;;;5031405;28;20045;-36
2022/09/27 08:59:30;;;;;;;0.65;0.00;;;11.10;99.90;;;;;;5027897;28;20479;-36
2022/09/27 09:01:56;;;;;;;3.42;0.00;;;11.00;99.90;;;;;;5037242;28;20041;-35
2022/09/27 09:04:35;;;;;;;2.03;0.10;;;10.90;99.90;;;;;;5034842;28;20029;-36
2022/09/27 09:07:32;;;;;;;0.10;0.00;;;10.70;99.90;;;;;;5026994;28;20061;-36
2022/09/27 09:12:45;;;;;;;1.17;0.00;;;10.60;99.90;;;;;;5026007;28;20049;-36
2022/09/27 09:13:28;;;;;;;0.22;0.08;;;10.60;99.90;;;;;;5029530;28;20526;-38
2022/09/27 09:16:06;;;;;;;0.10;0.00;;;10.70;99.90;;;;;;5027656;28;20136;-37
2022/09/27 09:19:17;;;;;;;1.00;0.00;;;10.60;99.90;;;;;;5029522;28;20045;-38
2022/09/27 09:22:18;;;;;;;0.10;0.00;;;10.60;99.90;;;;;;5026075;28;20517;-37
2022/09/27 09:25:31;;;;;;;0.57;0.00;;;10.60;99.90;;;;;;5026206;28;20041;-36
2022/09/27 09:28:10;;;;;;;0.05;0.00;;;10.70;99.90;;;;;;4943266;28;20138;-38
2022/09/27 09:30:58;;;;;;;1.30;0.10;;;10.70;99.90;;;;;;5031429;28;20114;-37
2022/09/27 09:33:30;;;;;;;1.17;0.00;;;10.70;99.90;;;;;;5026704;28;20045;-38
2022/09/27 09:36:03;;;;;;;0.10;0.00;;;10.80;99.90;;;;;;5030569;28;20507;-37
2022/09/27 09:39:12;;;;;;;0.10;0.00;;;10.80;99.90;;;;;;5034597;28;20145;-38
2022/09/27 09:42:03;;;;;;;0.47;0.00;;;10.80;99.90;;;;;;4986881;28;20062;-37
2022/09/27 09:44:41;;;;;;;1.38;0.10;;;10.80;99.90;;;;;;4990365;28;20523;-37
2022/09/27 09:47:34;;;;;;;0.13;0.00;;;10.90;99.90;;;;;;5020919;28;20045;-37
2022/09/27 09:50:14;;;;;;;0.00;0.00;;;11.00;99.90;;;;;;5031180;28;20041;-37
2022/09/27 09:52:47;;;;;;;0.68;0.10;;;11.20;99.90;;;;;;5027648;28;20048;-38
2022/09/27 09:55:27;;;;;;;0.93;0.10;;;11.30;99.90;;;;;;5031733;28;20045;-37
2022/09/27 09:58:21;;;;;;;1.73;0.10;;;11.50;99.90;;;;;;5027940;28;20033;-38
2022/09/27 10:00:52;;;;;;;0.43;0.00;;;11.70;99.90;;;;;;5010769;28;20049;-37
2022/09/27 10:03:19;;;;;;;2.05;0.03;;;11.70;99.90;;;;;;5029080;28;20102;-37
2022/09/27 10:05:45;;;;;;;0.55;0.00;;;11.80;99.90;;;;;;5032638;28;20042;-36
2022/09/27 10:08:20;;;;;;;0.98;0.10;;;11.90;99.90;;;;;;5031065;28;20041;-37
2022/09/27 10:10:46;;;;;;;2.33;0.10;;;11.90;99.90;;;;;;5027059;28;20048;-37
2022/09/27 10:13:18;;;;;;;3.00;0.20;;;12.00;99.90;;;;;;5027179;28;20052;-37
2022/09/27 10:15:53;;;;;;;1.02;0.10;;;11.90;99.90;;;;;;5028523;28;20125;-37
2022/09/27 10:18:20;;;;;;;0.80;0.08;;;11.80;99.90;;;;;;5030026;28;20048;-35
2022/09/27 10:20:57;;;;;;;2.47;0.10;;;11.60;99.90;;;;;;5029855;28;20037;-36
2022/09/27 10:23:24;;;;;;;0.88;0.05;;;11.60;99.90;;;;;;5035564;28;20045;-38
2022/09/27 10:26:01;;;;;;;3.83;0.10;;;11.50;99.90;;;;;;5023737;28;20487;-42
2022/09/27 10:28:31;;;;;;;1.35;0.00;;;11.30;99.90;;;;;;5030963;28;20056;-38
2022/09/27 10:31:18;;;;;;;1.63;0.00;;;11.00;99.90;;;;;;5025776;28;20049;-38
2022/09/27 10:34:01;;;;;;;2.30;0.00;;;10.70;99.90;;;;;;5030059;28;20144;-38
2022/09/27 10:36:29;;;;;;;0.40;0.00;;;10.40;99.90;;;;;;5031622;28;20496;-39
2022/09/27 10:39:01;;;;;;;0.20;0.00;;;10.30;99.90;;;;;;5042566;28;20037;-38
2022/09/27 10:41:30;;;;;;;0.13;0.00;;;10.30;99.90;;;;;;5031685;28;20490;-39
2022/09/27 10:43:56;;;;;;;0.30;0.00;;;10.30;99.90;;;;;;5031987;28;20511;-48
2022/09/27 10:46:31;;;;;;;0.15;0.00;;;10.40;99.90;;;;;;5032623;28;20040;-38
2022/09/27 10:49:09;;;;;;;1.40;0.03;;;10.40;99.90;;;;;;5032607;28;20076;-37
2022/09/27 10:51:36;;;;;;;0.10;0.00;;;10.50;99.90;;;;;;5037144;28;20110;-39
2022/09/27 10:54:01;;;;;;;0.60;0.00;;;10.60;99.90;;;;;;5028882;28;20038;-38
2022/09/27 10:56:33;;;;;;;1.35;0.05;;;10.70;99.90;;;;;;5044723;28;20036;-39
2022/09/27 10:59:01;;;;;;;1.80;0.20;;;10.80;99.90;;;;;;5031371;28;20042;-38
2022/09/27 11:01:44;;;;;;;2.70;0.20;;;10.80;99.90;;;;;;5035150;28;20037;-39
2022/09/27 11:04:40;;;;;;;;;;;10.90;99.90;;;;;;5027581;28;20084;-37
2022/09/27 11:07:18;;;;;;;0.10;0.00;;;11.00;99.90;;;;;;5012614;28;19974;-37
2022/09/27 11:09:53;;;;;;;0.47;0.00;;;11.20;99.90;;;;;;5033723;28;20498;-40
2022/09/27 11:12:21;;;;;;;0.20;0.00;;;11.20;99.90;;;;;;5018012;28;20050;-39
2022/09/27 11:15:17;;;;;;;1.75;0.00;;;11.30;99.90;;;;;;5034281;28;20090;-38
2022/09/27 11:17:51;;;;;;;1.95;0.10;;;11.50;99.90;;;;;;5035248;28;20049;-43
2022/09/27 11:20:30;;;;;;;1.50;0.30;;;11.70;99.90;;;;;;5031582;28;20127;-39
2022/09/27 11:23:18;;;;;;;0.75;0.10;;;11.80;99.90;;;;;;5034437;28;20057;-38
2022/09/27 11:26:03;;;;;;;0.50;0.00;;;12.00;99.90;;;;;;5009579;28;20124;-37
2022/09/27 11:28:28;;;;;;;2.60;0.10;;;12.20;99.90;;;;;;5034471;28;20068;-38
2022/09/27 11:31:42;;;;;;;1.38;0.17;;;12.30;99.90;;;;;;5038300;28;20494;-38
2022/09/27 11:34:43;;;;;;;1.10;0.20;;;12.40;99.90;;;;;;5030271;28;20120;-37
2022/09/27 11:37:31;;;;;;;1.27;0.20;;;12.50;99.90;;;;;;5034364;28;20048;-37
2022/09/27 11:40:20;;;;;;;4.38;0.20;;;12.50;99.90;;;;;;5031136;28;20149;-37
2022/09/27 11:42:52;;;;;;;0.93;0.10;;;12.50;99.90;;;;;;5001111;28;20499;-37
2022/09/27 11:45:31;;;;;;;1.30;0.10;;;12.50;99.90;;;;;;5013385;28;20060;-38
2022/09/27 11:48:03;;;;;;;0.43;0.10;;;12.50;99.90;;;;;;5020599;28;20785;-38
2022/09/27 11:51:08;;;;;;;1.27;0.10;;;12.60;99.90;;;;;;5014443;28;20067;-38
2022/09/27 11:54:03;;;;;;;2.65;0.13;;;12.70;99.90;;;;;;5010141;28;20092;-37
2022/09/27 11:57:15;;;;;;;0.77;0.30;;;12.80;99.90;;;;;;4992720;28;20044;-39
2022/09/27 11:59:40;;;;;;;4.97;0.10;;;12.70;99.90;;;;;;5011021;28;20041;-36
2022/09/27 12:02:24;;;;;;;1.48;0.10;;;12.70;99.90;;;;;;5014015;28;20096;-36
2022/09/27 12:04:59;;;;;;;0.75;0.10;;;12.60;99.90;;;;;;5013895;28;20038;-37
2022/09/27 12:07:43;;;;;;;1.33;0.10;;;12.60;99.90;;;;;;5009640;28;20050;-36
2022/09/27 12:10:13;;;;;;;0.43;0.10;;;12.70;99.90;;;;;;5008194;28;20052;-36
2022/09/27 12:12:43;;;;;;;1.45;0.10;;;12.60;99.90;;;;;;5014786;28;20034;-35
2022/09/27 12:15:32;;;;;;;2.20;0.35;;;12.50;99.90;;;;;;5008889;28;20051;-38
2022/09/27 12:18:21;;;;;;;1.52;0.10;;;12.40;99.90;;;;;;5010662;28;20097;-39
2022/09/27 12:20:47;;;;;;;0.82;0.20;;;12.30;99.90;;;;;;5013234;28;20064;-37
2022/09/27 12:23:16;;;;;;;1.63;0.10;;;12.20;99.90;;;;;;5008571;28;20034;-38
2022/09/27 12:25:45;;;;;;;2.35;0.10;;;12.20;99.90;;;;;;5010300;28;20056;-38
2022/09/27 12:28:20;;;;;;;2.05;0.22;;;12.00;99.90;;;;;;5012634;28;20045;-37
2022/09/27 12:30:57;;;;;;;3.58;0.20;;;11.90;99.90;;;;;;5008386;28;20041;-37
2022/09/27 12:33:33;;;;;;;1.55;0.10;;;11.90;99.90;;;;;;5014494;28;20532;-37
2022/09/27 12:36:05;;;;;;;0.63;0.10;;;11.90;99.90;;;;;;5011577;28;20078;-39
2022/09/27 12:38:40;;;;;;;0.38;0.10;;;11.80;99.90;;;;;;5005891;28;20482;-37
2022/09/27 12:41:11;;;;;;;1.80;0.20;;;11.70;99.90;;;;;;5002282;28;20041;-37
2022/09/27 12:43:40;;;;;;;0.93;0.10;;;11.60;99.90;;;;;;5012767;28;20502;-36
2022/09/27 12:46:20;;;;;;;3.00;0.20;;;11.50;99.90;;;;;;5012093;28;20509;-37
2022/09/27 12:48:49;;;;;;;1.98;0.20;;;11.50;99.90;;;;;;5004211;28;20042;-38
2022/09/27 12:51:18;;;;;;;2.72;0.10;;;11.50;99.90;;;;;;5008090;28;20042;-37
2022/09/27 12:54:18;;;;;;;1.25;0.13;;;11.60;99.90;;;;;;5008426;28;20044;-37
2022/09/27 12:56:48;;;;;;;0.40;0.17;;;11.80;99.90;;;;;;5009072;28;20042;-38
2022/09/27 12:59:27;;;;;;;1.90;0.10;;;11.90;99.90;;;;;;5003009;28;20051;-36
2022/09/27 13:02:27;;;;;;;1.13;0.10;;;11.90;99.90;;;;;;5008869;28;20104;-38
2022/09/27 13:05:06;;;;;;;2.08;0.10;;;11.60;99.90;;;;;;5008166;28;20041;-37
2022/09/27 13:08:08;;;;;;;1.08;0.08;;;11.50;99.90;;;;;;5008859;28;20038;-37
2022/09/27 13:11:04;;;;;;;0.50;0.10;;;11.20;99.90;;;;;;5004395;28;20041;-37
2022/09/27 13:13:31;;;;;;;0.52;0.10;;;11.00;99.90;;;;;;5007000;28;20054;-37
2022/09/27 13:15:59;;;;;;;0.20;0.00;;;10.80;99.90;;;;;;5005601;28;20078;-38
2022/09/27 13:19:00;;;;;;;0.10;0.00;;;10.70;99.90;;;;;;5004578;28;20045;-36
2022/09/27 13:21:50;;;;;;;1.00;0.10;;;10.60;99.90;;;;;;5002116;28;20490;-36
2022/09/27 13:24:38;;;;;;;0.98;0.10;;;10.70;99.90;;;;;;5012747;28;20573;-36
2022/09/27 13:27:26;;;;;;;0.22;0.00;;;10.70;99.90;;;;;;5013844;28;20074;-36
2022/09/27 13:30:15;;;;;;;1.52;0.00;;;10.70;99.90;;;;;;5003887;28;20034;-36
2022/09/27 13:33:09;;;;;;;0.52;0.00;;;10.80;99.90;;;;;;5001608;28;20034;-35
2022/09/27 13:35:35;;;;;;;1.40;0.00;;;10.90;99.90;;;;;;5010145;28;20139;-36
2022/09/27 13:38:04;;;;;;;0.40;0.10;;;11.00;99.90;;;;;;5004974;28;20053;-36
2022/09/27 13:40:35;;;;;;;1.10;0.20;;;11.00;99.90;;;;;;5007187;28;20030;-36